Time;durP1;ratioP1;P1;durP2;ratioP2;P2;SDS_P1;SDS_P2;PMS_P1;PMS_P2;Temp;Humidity;BMP_temperature;BMP_pressure;BME280_temperature;BME280_humidity;BME280_pressure;Samples;Min_cycle;Max_cycle;Signal;HPM_P1;HPM_P2
2023/05/03 00:00:49;;;;;;;;;14.25;13.00;;;;;16.52;45.90;101994.03;5041124;28;45489;-62
2023/05/03 00:03:15;;;;;;;;;15.00;14.75;;;;;16.49;45.83;101989.66;5061319;28;45316;-62
2023/05/03 00:05:40;;;;;;;;;15.00;12.75;;;;;16.45;45.71;101984.44;5060917;28;45291;-63
2023/05/03 00:08:06;;;;;;;;;17.50;15.75;;;;;16.42;45.92;101983.59;5060810;28;46067;-62
2023/05/03 00:10:31;;;;;;;;;14.25;14.00;;;;;16.39;46.20;101983.66;5060814;28;45400;-65
2023/05/03 00:12:56;;;;;;;;;17.25;16.50;;;;;16.37;46.20;101988.09;5042636;28;52386;-63
2023/05/03 00:15:22;;;;;;;;;13.50;13.50;;;;;16.34;45.92;101977.56;5060460;28;45986;-63
2023/05/03 00:17:47;;;;;;;;;14.00;13.00;;;;;16.30;45.95;101969.69;5042615;28;47068;-64
2023/05/03 00:20:14;;;;;;;;;13.25;12.25;;;;;16.25;45.66;101962.69;5047509;28;55781;-64
2023/05/03 00:22:39;;;;;;;;;16.75;13.00;;;;;16.17;45.68;101951.34;5042617;28;45447;-64
2023/05/03 00:25:06;;;;;;;;;14.25;13.25;;;;;16.22;45.95;101960.09;5060325;28;45506;-63
2023/05/03 00:27:31;;;;;;;;;15.50;12.75;;;;;16.15;46.14;101962.88;5060598;28;45490;-63
2023/05/03 00:29:57;;;;;;;;;12.75;11.00;;;;;16.14;45.82;101963.78;5060393;28;45375;-64
2023/05/03 00:32:22;;;;;;;;;14.00;13.00;;;;;16.10;45.85;101970.94;5060494;28;45406;-63
2023/05/03 00:34:55;;;;;;;;;12.00;11.50;;;;;16.06;46.15;101972.78;5060599;28;45306;-64
2023/05/03 00:37:20;;;;;;;;;9.75;8.00;;;;;16.03;45.84;101985.19;5042368;28;47968;-64
2023/05/03 00:39:46;;;;;;;;;15.50;12.50;;;;;16.03;45.88;101982.53;5060143;28;45277;-64
2023/05/03 00:42:11;;;;;;;;;13.75;12.75;;;;;15.99;46.02;101981.72;5042426;28;45280;-64
2023/05/03 00:44:36;;;;;;;;;11.50;11.50;;;;;15.95;46.18;101979.13;5060359;28;45282;-64
2023/05/03 00:47:03;;;;;;;;;13.75;13.25;;;;;15.92;45.75;101975.66;5060085;28;45478;-64
2023/05/03 00:49:28;;;;;;;;;14.00;13.75;;;;;15.91;46.11;101989.81;5060227;28;45296;-64
2023/05/03 00:51:54;;;;;;;;;10.00;10.00;;;;;15.89;45.85;101977.47;5060253;28;45339;-64
2023/05/03 00:54:20;;;;;;;;;15.50;13.25;;;;;15.86;45.97;101983.72;5042046;28;45511;-64
2023/05/03 00:56:46;;;;;;;;;14.00;14.00;;;;;15.83;46.03;101969.63;5059922;28;45506;-64
2023/05/03 00:59:11;;;;;;;;;15.75;14.75;;;;;15.81;45.66;101969.63;5060196;28;45297;-64
2023/05/03 01:01:37;;;;;;;;;18.75;14.00;;;;;15.75;45.78;101965.28;5048098;28;45261;-64
2023/05/03 01:04:05;;;;;;;;;14.75;13.00;;;;;15.74;45.78;101968.84;5040027;28;45237;-65
2023/05/03 01:06:36;;;;;;;;;16.50;14.50;;;;;15.71;45.94;101965.34;5039834;28;45388;-65
2023/05/03 01:09:11;;;;;;;;;13.25;13.25;;;;;15.62;45.46;101958.44;5039701;28;45276;-65
2023/05/03 01:11:46;;;;;;;;;11.25;11.00;;;;;15.63;45.71;101964.63;5021942;28;45332;-65
2023/05/03 01:14:35;;;;;;;;;15.75;12.75;;;;;15.59;46.24;101959.34;5021756;28;45829;-65
2023/05/03 01:17:10;;;;;;;;;14.75;13.50;;;;;15.56;46.06;101962.06;5021397;28;47242;-65
2023/05/03 01:19:43;;;;;;;;;13.00;13.00;;;;;15.54;45.79;101958.56;5039733;28;45368;-64
2023/05/03 01:22:26;;;;;;;;;16.00;15.50;;;;;15.49;45.75;101951.59;5042423;28;45345;-64
2023/05/03 01:25:09;;;;;;;;;13.50;13.00;;;;;15.41;46.14;101949.94;5039731;28;45373;-65
2023/05/03 01:27:35;;;;;;;;;15.25;13.50;;;;;15.42;46.01;101953.44;5039574;28;45455;-65
2023/05/03 01:30:06;;;;;;;;;15.00;12.50;;;;;15.37;46.02;101947.34;5039266;28;45308;-64
2023/05/03 01:32:48;;;;;;;;;18.00;13.50;;;;;15.32;45.86;101939.50;5021697;28;45365;-64
2023/05/03 01:35:29;;;;;;;;;16.75;15.25;;;;;15.32;45.66;101946.53;5047888;28;45455;-63
2023/05/03 01:37:56;;;;;;;;;11.75;10.50;;;;;15.26;45.87;101945.72;5059569;28;46023;-64
2023/05/03 01:40:22;;;;;;;;;15.25;12.50;;;;;15.24;45.58;101946.66;5059558;28;45253;-64
2023/05/03 01:42:50;;;;;;;;;16.50;15.00;;;;;15.25;45.69;101959.88;5041626;28;45309;-64
2023/05/03 01:45:16;;;;;;;;;12.75;11.25;;;;;15.23;46.23;101961.69;5059388;28;45568;-64
2023/05/03 01:47:42;;;;;;;;;13.50;11.75;;;;;15.20;45.67;101961.72;5041178;28;47016;-64
2023/05/03 01:50:07;;;;;;;;;16.00;12.75;;;;;15.17;45.92;101951.19;5048799;28;45416;-64
2023/05/03 01:52:33;;;;;;;;;18.50;14.75;;;;;15.17;45.60;101960.88;5052263;28;45327;-64
2023/05/03 01:54:59;;;;;;;;;17.25;14.50;;;;;15.17;45.90;101968.81;5048805;28;45521;-64
2023/05/03 01:57:24;;;;;;;;;15.00;12.75;;;;;15.14;45.87;101972.38;5039209;28;45435;-64
2023/05/03 01:59:49;;;;;;;;;14.75;12.75;;;;;15.15;46.11;101973.28;5048878;28;45462;-64
2023/05/03 02:02:15;;;;;;;;;12.50;12.50;;;;;15.11;46.07;101961.84;5042263;28;45563;-64
2023/05/03 02:04:40;;;;;;;;;12.50;12.00;;;;;15.10;45.93;101973.31;5039399;28;45347;-64
2023/05/03 02:07:06;;;;;;;;;13.75;11.50;;;;;15.09;46.09;101980.41;5039132;28;46711;-64
2023/05/03 02:09:31;;;;;;;;;13.75;11.00;;;;;15.07;45.74;101976.03;5041449;28;45405;-64
2023/05/03 02:11:56;;;;;;;;;15.25;13.25;;;;;15.03;45.72;101971.66;5046051;28;45270;-64
2023/05/03 02:14:22;;;;;;;;;13.75;11.50;;;;;15.06;46.02;101979.56;5042802;28;45468;-64
2023/05/03 02:16:47;;;;;;;;;14.25;14.00;;;;;15.04;46.10;101974.31;5042178;28;46446;-64
2023/05/03 02:19:13;;;;;;;;;14.00;14.00;;;;;15.01;45.82;101969.03;5042538;28;45402;-64
2023/05/03 02:21:38;;;;;;;;;14.75;12.50;;;;;15.01;45.89;101974.31;5059053;28;45287;-64
2023/05/03 02:24:04;;;;;;;;;17.25;14.25;;;;;14.99;46.10;101980.53;5044662;28;45241;-64
2023/05/03 02:26:29;;;;;;;;;15.00;12.75;;;;;14.94;46.25;101970.91;5062502;28;45401;-64
2023/05/03 02:28:55;;;;;;;;;13.50;13.25;;;;;14.98;46.41;101981.41;5062565;28;45238;-64
2023/05/03 02:31:21;;;;;;;;;14.50;13.50;;;;;14.94;46.21;101973.53;5062375;28;45236;-64
2023/05/03 02:33:46;;;;;;;;;16.25;14.00;;;;;14.94;46.30;101977.94;5062413;28;45445;-64
2023/05/03 02:36:12;;;;;;;;;15.00;12.00;;;;;14.93;45.97;101979.72;5044107;28;48414;-64
2023/05/03 02:38:37;;;;;;;;;15.75;12.75;;;;;14.90;46.20;101979.75;5062542;28;45258;-64
2023/05/03 02:41:02;;;;;;;;;14.00;12.75;;;;;14.88;46.04;101978.00;5041761;28;45561;-64
2023/05/03 02:43:28;;;;;;;;;17.25;16.50;;;;;14.83;46.33;101974.56;5042218;28;45394;-64
2023/05/03 02:45:53;;;;;;;;;14.00;13.00;;;;;14.82;46.08;101971.03;5023940;28;47236;-64
2023/05/03 02:48:18;;;;;;;;;13.75;13.50;;;;;14.78;46.35;101972.84;5042144;28;45277;-64
2023/05/03 02:50:44;;;;;;;;;18.75;15.50;;;;;14.77;46.08;101979.03;5024101;28;45294;-64
2023/05/03 02:53:09;;;;;;;;;18.25;14.00;;;;;14.74;46.12;101976.44;5042074;28;45346;-64
2023/05/03 02:55:35;;;;;;;;;18.25;16.25;;;;;14.73;46.22;101976.44;5041733;28;46055;-64
2023/05/03 02:58:00;;;;;;;;;15.25;14.25;;;;;14.71;46.27;101983.53;5024004;28;45336;-64
2023/05/03 03:00:25;;;;;;;;;17.25;15.25;;;;;14.68;46.12;101983.53;5038219;28;45475;-64
2023/05/03 03:02:51;;;;;;;;;17.50;14.25;;;;;14.58;46.37;101965.13;5024226;28;45598;-64
2023/05/03 03:05:16;;;;;;;;;18.75;16.50;;;;;14.63;45.77;101976.50;5023918;28;45889;-64
2023/05/03 03:07:42;;;;;;;;;18.00;14.75;;;;;14.61;46.08;101966.84;5041691;28;45260;-64
2023/05/03 03:10:08;;;;;;;;;16.25;14.75;;;;;14.58;45.80;101965.13;5023774;28;45243;-64
2023/05/03 03:12:35;;;;;;;;;18.00;15.25;;;;;14.54;46.05;101963.41;5041635;28;45221;-64
2023/05/03 03:15:00;;;;;;;;;17.50;16.00;;;;;14.54;46.18;101965.16;5041511;28;45429;-64
2023/05/03 03:17:26;;;;;;;;;19.25;16.75;;;;;14.49;46.11;101948.47;5041500;28;45163;-64
2023/05/03 03:19:51;;;;;;;;;19.25;17.00;;;;;14.47;45.84;101954.63;5043445;28;45518;-64
2023/05/03 03:22:16;;;;;;;;;20.00;18.50;;;;;14.46;46.44;101946.72;5061459;28;45594;-65
2023/05/03 03:24:42;;;;;;;;;15.50;15.25;;;;;14.43;46.00;101942.34;5061493;28;45330;-63
2023/05/03 03:27:07;;;;;;;;;18.75;17.00;;;;;14.40;46.35;101933.56;5043256;28;51852;-64
2023/05/03 03:29:34;;;;;;;;;22.00;18.00;;;;;14.40;46.21;101937.13;5061499;28;45284;-64
2023/05/03 03:31:59;;;;;;;;;20.00;16.25;;;;;14.37;46.10;101936.25;5061423;28;45320;-64
2023/05/03 03:34:25;;;;;;;;;19.75;18.00;;;;;14.33;46.07;101923.97;5061138;28;45399;-64
2023/05/03 03:36:50;;;;;;;;;13.50;13.50;;;;;14.31;46.50;101926.63;5043516;28;45334;-64
2023/05/03 03:39:15;;;;;;;;;18.25;15.50;;;;;14.31;46.36;101931.91;5061038;28;46231;-64
2023/05/03 03:41:41;;;;;;;;;22.75;20.50;;;;;14.28;46.29;101934.59;5061652;28;45278;-64
2023/05/03 03:44:06;;;;;;;;;16.75;15.50;;;;;14.26;46.37;101934.63;5043102;28;47041;-64
2023/05/03 03:46:31;;;;;;;;;21.50;18.00;;;;;14.26;46.14;101933.72;5061137;28;45292;-64
2023/05/03 03:48:57;;;;;;;;;18.75;16.50;;;;;14.20;46.36;101918.81;5043297;28;45238;-64
2023/05/03 03:51:22;;;;;;;;;18.75;18.25;;;;;14.22;46.15;101921.44;5043228;28;45231;-64
2023/05/03 03:53:47;;;;;;;;;17.75;16.00;;;;;14.19;46.31;101925.00;5061079;28;45347;-64
2023/05/03 03:56:13;;;;;;;;;19.50;19.50;;;;;14.17;46.48;101924.13;5061075;28;46627;-64
2023/05/03 03:58:38;;;;;;;;;19.50;18.00;;;;;14.12;46.41;101916.25;5061122;28;45891;-64
2023/05/03 04:01:04;;;;;;;;;22.50;19.00;;;;;14.12;46.19;101921.56;5053705;28;45250;-64
2023/05/03 04:03:29;;;;;;;;;19.25;19.25;;;;;14.08;46.44;101929.50;5022937;28;47834;-64
2023/05/03 04:05:55;;;;;;;;;17.25;16.25;;;;;14.07;46.29;101925.13;5041233;28;45459;-64
2023/05/03 04:08:20;;;;;;;;;19.75;18.75;;;;;14.03;46.21;101923.41;5040934;28;45349;-64
2023/05/03 04:10:45;;;;;;;;;19.50;18.00;;;;;13.98;46.20;101928.72;5022790;28;45504;-64
2023/05/03 04:13:11;;;;;;;;;20.50;18.75;;;;;13.94;46.32;101919.09;5045983;28;46111;-63
2023/05/03 04:15:36;;;;;;;;;18.75;17.25;;;;;13.98;46.62;101934.00;5040744;28;45310;-64
2023/05/03 04:18:01;;;;;;;;;18.75;17.00;;;;;13.91;46.36;101927.91;5041017;28;45431;-64
2023/05/03 04:20:28;;;;;;;;;20.00;19.00;;;;;13.89;46.63;101932.31;5029126;28;45428;-65
2023/05/03 04:22:53;;;;;;;;;25.75;24.25;;;;;13.88;46.51;101932.34;5042569;28;47176;-64
2023/05/03 04:25:18;;;;;;;;;20.50;17.50;;;;;13.87;46.50;101926.16;5060544;28;45353;-64
2023/05/03 04:27:44;;;;;;;;;20.00;16.50;;;;;13.83;46.29;101929.72;5042853;28;45832;-64
2023/05/03 04:30:13;;;;;;;;;23.25;20.00;;;;;13.83;46.60;101935.03;5059956;28;45344;-64
2023/05/03 04:32:39;;;;;;;;;19.00;17.25;;;;;13.80;46.46;101935.94;5060456;28;46022;-64
2023/05/03 04:35:08;;;;;;;;;22.00;18.25;;;;;13.76;46.69;101930.66;5042373;28;45436;-64
2023/05/03 04:37:34;;;;;;;;;24.00;18.00;;;;;13.72;46.32;101919.28;5060568;28;45346;-64
2023/05/03 04:39:59;;;;;;;;;20.00;19.00;;;;;13.74;46.35;101927.19;5042302;28;45317;-64
2023/05/03 04:42:25;;;;;;;;;18.25;15.75;;;;;13.68;46.45;101919.31;5060269;28;45355;-64
2023/05/03 04:44:51;;;;;;;;;20.00;18.75;;;;;13.68;46.67;101929.88;5060288;28;45506;-64
2023/05/03 04:47:17;;;;;;;;;20.00;16.25;;;;;13.69;46.59;101934.28;5042292;28;45321;-64
2023/05/03 04:49:42;;;;;;;;;17.50;15.00;;;;;13.67;46.38;101933.41;5042481;28;45226;-64
2023/05/03 04:52:09;;;;;;;;;24.00;18.00;;;;;13.65;46.34;101931.66;5060033;28;46116;-64
2023/05/03 04:54:34;;;;;;;;;21.25;19.25;;;;;13.64;46.42;101932.53;5060391;28;45220;-64
2023/05/03 04:57:00;;;;;;;;;23.00;18.00;;;;;13.63;46.46;101940.47;5060146;28;45232;-64
2023/05/03 04:59:25;;;;;;;;;20.25;18.00;;;;;13.58;46.77;101940.50;5041985;28;45240;-65
2023/05/03 05:01:50;;;;;;;;;25.25;19.00;;;;;13.57;46.84;101940.50;5045302;28;55859;-64
2023/05/03 05:04:16;;;;;;;;;20.25;17.00;;;;;13.57;46.66;101940.50;5040364;28;45230;-64
2023/05/03 05:06:41;;;;;;;;;18.50;17.25;;;;;13.56;46.72;101942.28;5039962;28;45317;-64
2023/05/03 05:09:18;;;;;;;;;19.75;16.25;;;;;13.56;46.71;101944.94;5039897;28;45508;-64
2023/05/03 05:11:44;;;;;;;;;21.50;19.00;;;;;13.54;46.56;101938.78;5039841;28;46451;-64
2023/05/03 05:14:09;;;;;;;;;20.00;19.75;;;;;13.53;46.90;101941.44;5039796;28;45476;-64
2023/05/03 05:16:35;;;;;;;;;25.50;20.00;;;;;13.52;47.10;101937.03;5039679;28;45258;-64
2023/05/03 05:19:00;;;;;;;;;20.50;19.00;;;;;13.48;46.50;101942.34;5039982;28;45454;-64
2023/05/03 05:21:25;;;;;;;;;17.25;16.25;;;;;13.45;46.47;101933.56;5032917;28;47405;-64
2023/05/03 05:23:51;;;;;;;;;20.00;15.25;;;;;13.45;46.80;101934.44;5040054;28;45410;-64
2023/05/03 05:26:16;;;;;;;;;18.25;17.00;;;;;13.47;46.72;101932.66;5038267;28;45257;-64
2023/05/03 05:28:41;;;;;;;;;19.25;17.25;;;;;13.44;46.68;101943.25;5040073;28;45490;-64
2023/05/03 05:31:07;;;;;;;;;18.00;15.50;;;;;13.46;46.99;101938.84;5039445;28;45377;-64
2023/05/03 05:33:32;;;;;;;;;21.00;20.50;;;;;13.45;46.87;101942.34;5039505;28;48671;-64
2023/05/03 05:35:58;;;;;;;;;16.25;15.50;;;;;13.43;46.95;101944.16;5039718;28;45208;-64
2023/05/03 05:38:23;;;;;;;;;21.00;19.50;;;;;13.40;46.96;101933.59;5038200;28;45244;-64
2023/05/03 05:40:49;;;;;;;;;19.25;18.50;;;;;13.42;47.11;101933.56;5038005;28;47055;-63
2023/05/03 05:43:14;;;;;;;;;21.75;17.75;;;;;13.42;46.92;101939.75;5041208;28;45415;-64
2023/05/03 05:45:39;;;;;;;;;18.50;15.50;;;;;13.42;46.92;101930.94;5043014;28;45376;-64
2023/05/03 05:48:05;;;;;;;;;17.50;16.50;;;;;13.42;47.12;101936.22;5041699;28;45657;-64
2023/05/03 05:50:31;;;;;;;;;20.50;17.75;;;;;13.40;46.96;101938.00;5029167;28;45368;-64
2023/05/03 05:52:56;;;;;;;;;18.00;17.50;;;;;13.39;47.17;101936.25;5023093;28;45331;-64
2023/05/03 05:55:21;;;;;;;;;18.50;17.25;;;;;13.38;47.21;101937.13;5045212;28;45244;-64
2023/05/03 05:57:47;;;;;;;;;30.00;24.75;;;;;13.40;47.17;101940.66;5022980;28;45345;-64
2023/05/03 06:00:16;;;;;;;;;46.50;36.00;;;;;13.40;46.84;101944.16;5035291;28;45580;-64
2023/05/03 06:02:41;;;;;;;;;19.75;19.00;;;;;13.40;47.23;101945.94;5030178;28;45497;-64
2023/05/03 06:05:07;;;;;;;;;21.75;18.25;;;;;13.38;47.24;101942.41;5042678;28;45270;-64
2023/05/03 06:07:32;;;;;;;;;18.50;17.75;;;;;13.40;47.27;101943.28;5042911;28;46167;-64
2023/05/03 06:09:58;;;;;;;;;16.00;14.50;;;;;13.39;47.43;101950.31;5042487;28;45274;-64
2023/05/03 06:12:23;;;;;;;;;24.25;17.75;;;;;13.39;47.12;101949.44;5042840;28;45254;-64
2023/05/03 06:14:49;;;;;;;;;18.50;17.50;;;;;13.41;47.01;101955.56;5042356;28;47953;-64
2023/05/03 06:17:14;;;;;;;;;19.75;19.00;;;;;13.39;47.45;101950.31;5042596;28;45654;-64
2023/05/03 06:19:40;;;;;;;;;19.50;18.75;;;;;13.29;46.92;101932.75;5041067;28;47941;-64
2023/05/03 06:22:05;;;;;;;;;24.75;22.25;;;;;13.42;47.16;101965.25;5034382;28;45253;-64
2023/05/03 06:24:31;;;;;;;;;19.75;16.25;;;;;13.44;47.23;101966.13;5035983;28;45252;-64
2023/05/03 06:26:57;;;;;;;;;21.75;18.00;;;;;13.45;47.15;101954.69;5042510;28;45407;-64
2023/05/03 06:29:23;;;;;;;;;21.00;20.50;;;;;13.46;47.24;101948.53;5042540;28;46122;-64
2023/05/03 06:31:49;;;;;;;;;26.00;22.75;;;;;13.45;47.25;101936.22;5041909;28;45375;-64
2023/05/03 06:34:18;;;;;;;;;26.25;25.75;;;;;13.47;47.24;101932.66;5042505;28;45304;-64
2023/05/03 06:36:44;;;;;;;;;23.00;20.50;;;;;13.45;47.15;101925.66;5042409;28;45270;-64
2023/05/03 06:39:10;;;;;;;;;21.75;17.75;;;;;13.51;47.26;101937.91;5041840;28;46345;-64
2023/05/03 06:41:35;;;;;;;;;18.25;14.75;;;;;13.51;47.05;101937.91;5042310;28;45232;-64
2023/05/03 06:44:01;;;;;;;;;23.75;21.00;;;;;13.52;47.38;101940.56;5042549;28;45217;-64
2023/05/03 06:46:27;;;;;;;;;22.50;19.50;;;;;13.48;47.35;101929.16;5041845;28;45452;-64
2023/05/03 06:48:55;;;;;;;;;17.75;17.25;;;;;13.52;47.46;101923.81;5040704;28;46232;-64
2023/05/03 06:51:26;;;;;;;;;21.00;17.75;;;;;13.53;47.54;101944.94;5041891;28;45350;-64
2023/05/03 06:53:52;;;;;;;;;18.25;17.25;;;;;13.55;47.54;101934.38;5040023;28;45306;-64
2023/05/03 06:56:18;;;;;;;;;24.25;19.25;;;;;13.57;47.35;101941.41;5023970;28;45442;-64
2023/05/03 06:58:57;;;;;;;;;25.00;19.25;;;;;13.52;47.41;101930.00;5040199;28;45408;-65
2023/05/03 07:01:22;;;;;;;;;21.50;20.25;;;;;13.59;47.61;101941.38;5031104;28;45237;-64
2023/05/03 07:03:48;;;;;;;;;21.50;19.25;;;;;13.60;47.51;101938.72;5020862;28;45482;-64
2023/05/03 07:06:14;;;;;;;;;18.50;18.50;;;;;13.63;47.31;101933.44;5021920;28;45340;-64
2023/05/03 07:08:39;;;;;;;;;17.25;17.25;;;;;13.57;47.64;101922.91;5020430;28;48137;-64
2023/05/03 07:11:04;;;;;;;;;24.00;20.00;;;;;13.62;47.69;101921.13;5021540;28;45294;-64
2023/05/03 07:13:30;;;;;;;;;19.00;17.25;;;;;13.69;47.28;101926.34;5022010;28;45310;-64
2023/05/03 07:15:56;;;;;;;;;20.00;18.50;;;;;13.72;47.64;101923.66;5021660;28;45300;-64
2023/05/03 07:18:21;;;;;;;;;15.75;15.75;;;;;13.69;47.63;101918.44;5046455;28;48056;-64
2023/05/03 07:20:47;;;;;;;;;24.50;19.00;;;;;13.72;47.66;101921.03;5034660;28;45241;-64
2023/05/03 07:23:13;;;;;;;;;20.75;18.00;;;;;13.80;47.80;101929.78;5061797;28;45606;-65
2023/05/03 07:25:39;;;;;;;;;19.25;17.75;;;;;13.73;47.62;101906.94;5042902;28;45524;-64
2023/05/03 07:28:05;;;;;;;;;15.75;15.25;;;;;13.76;47.69;101902.50;5040700;28;46852;-64
2023/05/03 07:30:30;;;;;;;;;21.50;19.25;;;;;13.88;47.63;101911.22;5041353;28;45368;-64
2023/05/03 07:32:55;;;;;;;;;19.75;17.50;;;;;13.90;47.67;101918.22;5023720;28;45321;-64
2023/05/03 07:35:22;;;;;;;;;17.00;15.00;;;;;13.85;47.39;101898.91;5041341;28;45313;-64
2023/05/03 07:37:47;;;;;;;;;21.75;17.50;;;;;13.94;47.69;101906.72;5049363;28;48145;-64
2023/05/03 07:40:12;;;;;;;;;20.50;18.00;;;;;13.94;47.83;101895.31;5041076;28;45210;-64
2023/05/03 07:42:38;;;;;;;;;22.50;20.50;;;;;13.96;47.66;101894.38;5041364;28;45236;-64
2023/05/03 07:45:03;;;;;;;;;16.00;15.25;;;;;14.03;47.88;101897.84;5040961;28;45526;-64
2023/05/03 07:47:29;;;;;;;;;21.25;18.75;;;;;14.06;47.29;101894.28;5048428;28;48257;-64
2023/05/03 07:49:54;;;;;;;;;19.00;18.00;;;;;14.10;47.74;101896.00;5023236;28;45589;-64
2023/05/03 07:52:20;;;;;;;;;18.50;16.50;;;;;14.10;47.68;101891.59;5006760;28;45775;-64
2023/05/03 07:54:45;;;;;;;;;17.25;16.25;;;;;14.15;47.56;101883.63;5036040;28;45741;-64
2023/05/03 07:57:15;;;;;;;;;21.25;17.25;;;;;14.19;47.92;101884.44;5046150;28;45509;-64
2023/05/03 07:59:41;;;;;;;;;17.75;14.75;;;;;14.19;47.76;101880.06;5040892;28;45492;-64
2023/05/03 08:02:06;;;;;;;;;23.75;20.00;;;;;14.21;47.54;101877.38;5040856;28;45514;-64
2023/05/03 08:04:32;;;;;;;;;20.50;20.00;;;;;14.25;47.89;101874.69;5040789;28;45462;-64
2023/05/03 08:07:03;;;;;;;;;19.25;18.00;;;;;14.26;47.85;101864.97;5021870;28;49844;-64
2023/05/03 08:09:29;;;;;;;;;18.50;15.00;;;;;14.34;47.60;101871.06;5040731;28;47488;-64
2023/05/03 08:11:55;;;;;;;;;21.50;20.00;;;;;14.38;47.55;101874.56;5040554;28;45254;-64
2023/05/03 08:14:21;;;;;;;;;17.50;14.25;;;;;14.41;47.96;101871.88;5040786;28;45452;-64
2023/05/03 08:16:47;;;;;;;;;21.00;17.00;;;;;14.45;47.41;101873.56;5022143;28;47008;-64
2023/05/03 08:19:12;;;;;;;;;14.50;13.50;;;;;14.50;47.59;101863.81;5040693;28;45210;-64
2023/05/03 08:21:37;;;;;;;;;13.25;12.50;;;;;14.54;48.05;101864.66;5039090;28;45520;-63
2023/05/03 08:24:05;;;;;;;;;19.00;18.00;;;;;14.58;47.91;101869.88;5042395;28;45234;-62
2023/05/03 08:26:31;;;;;;;;;14.25;13.50;;;;;14.59;47.62;101855.78;5060486;28;45493;-63
2023/05/03 08:28:57;;;;;;;;;16.75;15.75;;;;;14.68;47.50;101865.38;5060535;28;45520;-63
2023/05/03 08:31:22;;;;;;;;;15.75;15.00;;;;;14.71;47.96;101859.19;5060187;28;45461;-63
2023/05/03 08:33:48;;;;;;;;;19.25;16.25;;;;;14.75;47.84;101858.22;5060481;28;47499;-63
2023/05/03 08:36:13;;;;;;;;;18.75;16.25;;;;;14.81;47.57;101855.50;5060211;28;46406;-63
2023/05/03 08:38:40;;;;;;;;;20.25;16.75;;;;;14.87;47.50;101859.84;5042681;28;45380;-63
2023/05/03 08:41:22;;;;;;;;;20.50;15.25;;;;;14.87;47.90;101851.91;5060373;28;45498;-63
2023/05/03 08:43:52;;;;;;;;;18.25;16.25;;;;;14.97;47.78;101845.56;5042127;28;45440;-63
2023/05/03 08:46:18;;;;;;;;;19.00;16.25;;;;;15.03;47.68;101853.44;5041690;28;47232;-63
2023/05/03 08:48:46;;;;;;;;;19.00;18.25;;;;;15.08;48.15;101850.69;5060270;28;45208;-63
2023/05/03 08:51:13;;;;;;;;;19.00;15.75;;;;;15.11;47.80;101838.28;5042165;28;45530;-63
2023/05/03 08:53:38;;;;;;;;;18.75;17.25;;;;;15.21;48.04;101846.97;5060221;28;45435;-63
2023/05/03 08:56:08;;;;;;;;;17.25;15.00;;;;;15.28;47.99;101845.97;5059911;28;45404;-63
2023/05/03 08:58:36;;;;;;;;;16.25;14.50;;;;;15.33;47.77;101845.88;5060299;28;45272;-62
2023/05/03 09:01:06;;;;;;;;;8.50;7.25;;;;;15.39;48.21;101834.31;5052769;28;45223;-63
2023/05/03 09:03:32;;;;;;;;;19.50;14.50;;;;;15.47;48.02;101837.72;5039982;28;45263;-63
2023/05/03 09:06:03;;;;;;;;;19.25;16.00;;;;;15.50;48.76;101834.16;5039864;28;45361;-63
2023/05/03 09:08:30;;;;;;;;;15.75;15.75;;;;;15.59;47.68;101836.63;5039705;28;45383;-63
2023/05/03 09:10:56;;;;;;;;;16.25;14.75;;;;;15.64;48.08;101818.00;5039797;28;45341;-63
2023/05/03 09:13:29;;;;;;;;;17.75;15.75;;;;;15.66;47.98;101810.88;5039249;28;45312;-63
2023/05/03 09:15:56;;;;;;;;;16.00;12.75;;;;;15.78;47.96;101823.91;5039566;28;45420;-63
2023/05/03 09:18:22;;;;;;;;;15.00;14.00;;;;;15.87;47.81;101823.78;5039298;28;45237;-63
2023/05/03 09:20:52;;;;;;;;;14.75;14.75;;;;;15.91;47.73;101820.16;5049120;28;45270;-63
2023/05/03 09:23:27;;;;;;;;;13.00;11.00;;;;;16.01;47.73;101815.56;5059640;28;45405;-63
2023/05/03 09:25:53;;;;;;;;;19.25;15.75;;;;;16.09;47.76;101820.69;5041358;28;46156;-63
2023/05/03 09:28:19;;;;;;;;;15.25;13.00;;;;;16.13;48.07;101816.22;5059696;28;45474;-63
2023/05/03 09:30:46;;;;;;;;;13.75;13.00;;;;;16.22;48.14;101816.88;5041498;28;45393;-63
2023/05/03 09:33:19;;;;;;;;;19.50;15.00;;;;;16.30;47.65;101815.84;5040878;28;45333;-63
2023/05/03 09:35:56;;;;;;;;;15.25;13.25;;;;;16.39;47.83;101810.38;5039360;28;46148;-63
2023/05/03 09:38:26;;;;;;;;;13.75;13.75;;;;;16.48;48.00;101818.13;5039621;28;45392;-64
2023/05/03 09:40:52;;;;;;;;;11.75;11.75;;;;;16.54;48.18;101807.38;5021495;28;45366;-64
2023/05/03 09:43:17;;;;;;;;;15.25;12.75;;;;;16.60;47.54;101803.69;5039445;28;45574;-64
2023/05/03 09:45:43;;;;;;;;;11.25;11.25;;;;;16.73;47.58;101807.81;5039269;28;45314;-63
2023/05/03 09:48:08;;;;;;;;;14.25;11.75;;;;;16.81;47.75;101810.28;5039380;28;45290;-64
2023/05/03 09:50:35;;;;;;;;;13.50;13.00;;;;;16.94;47.95;101820.66;5039546;28;45399;-64
2023/05/03 09:53:03;;;;;;;;;12.25;12.25;;;;;17.03;47.93;101808.03;5039422;28;45399;-64
2023/05/03 09:55:33;;;;;;;;;12.50;11.25;;;;;17.16;47.69;101803.28;5038967;28;45319;-63
2023/05/03 09:57:59;;;;;;;;;13.00;13.00;;;;;17.26;47.89;101800.41;5038604;28;45317;-64
2023/05/03 10:00:24;;;;;;;;;14.00;12.00;;;;;17.40;47.66;101803.59;5051038;28;45519;-63
2023/05/03 10:02:53;;;;;;;;;14.25;12.00;;;;;17.51;47.96;101790.88;5039271;28;45422;-63
2023/05/03 10:05:20;;;;;;;;;14.25;12.25;;;;;17.65;47.99;101793.16;5039065;28;46107;-64
2023/05/03 10:07:50;;;;;;;;;15.00;13.25;;;;;17.83;47.94;101794.44;5039060;28;45372;-63
2023/05/03 10:10:16;;;;;;;;;13.00;11.50;;;;;17.99;47.80;101796.72;5021074;28;45370;-64
2023/05/03 10:12:42;;;;;;;;;12.25;12.25;;;;;18.14;47.91;101788.28;5038294;28;45497;-64
2023/05/03 10:15:11;;;;;;;;;13.25;13.25;;;;;18.34;48.08;101793.03;5041573;28;45236;-64
2023/05/03 10:17:38;;;;;;;;;13.75;12.75;;;;;18.54;47.77;101785.34;5021262;28;45272;-64
2023/05/03 10:20:19;;;;;;;;;13.75;12.00;;;;;18.71;47.49;101777.69;5042286;28;45364;-64
2023/05/03 10:23:09;;;;;;;;;14.00;11.75;;;;;18.94;47.75;101776.09;5059092;28;45302;-64
2023/05/03 10:25:36;;;;;;;;;12.50;12.50;;;;;19.13;48.21;101769.25;5056223;28;45366;-64
2023/05/03 10:28:07;;;;;;;;;12.00;10.75;;;;;19.32;48.03;101761.50;5059194;28;45425;-64
2023/05/03 10:30:37;;;;;;;;;12.00;11.00;;;;;19.52;47.55;101765.28;5062298;28;45330;-64
2023/05/03 10:33:11;;;;;;;;;12.50;12.00;;;;;19.74;47.67;101765.34;5062169;28;45195;-64
2023/05/03 10:35:41;;;;;;;;;11.25;9.50;;;;;19.93;47.33;101770.91;5062557;28;46489;-64
2023/05/03 10:38:14;;;;;;;;;13.25;11.50;;;;;20.15;47.52;101767.44;5062278;28;45375;-64
2023/05/03 10:40:41;;;;;;;;;15.25;11.75;;;;;20.33;47.89;101755.19;5062258;28;45502;-64
2023/05/03 10:46:03;;;;;;;;;12.00;12.00;;;;;20.74;47.82;101755.34;5061564;28;45813;-64
2023/05/03 10:48:29;;;;;;;;;9.50;9.50;;;;;20.93;47.45;101751.94;5062220;28;45306;-64
2023/05/03 10:50:56;;;;;;;;;14.25;12.25;;;;;21.11;47.07;101753.78;5062115;28;45301;-65
2023/05/03 10:53:48;;;;;;;;;13.50;12.00;;;;;21.31;47.31;101744.06;5027127;28;45605;-64
2023/05/03 10:56:14;;;;;;;;;15.50;12.50;;;;;21.48;46.99;101740.63;5060580;28;45336;-64
2023/05/03 10:58:47;;;;;;;;;15.50;13.50;;;;;21.66;47.48;101733.66;5061438;28;45380;-65
2023/05/03 11:01:17;;;;;;;;;12.75;12.75;;;;;21.83;47.35;101729.31;5050953;28;45364;-64
2023/05/03 11:04:07;;;;;;;;;14.50;12.00;;;;;21.99;47.30;101729.50;5061842;28;46443;-65
2023/05/03 11:06:34;;;;;;;;;11.25;9.75;;;;;22.13;46.56;101726.16;5061749;28;46090;-65
2023/05/03 11:09:01;;;;;;;;;14.75;12.00;;;;;22.26;46.90;101723.75;5043454;28;45399;-65
2023/05/03 11:11:26;;;;;;;;;13.25;12.25;;;;;22.39;46.57;101717.78;5040390;28;45415;-65